Dalhart Municipal Airport Dalhart US
ICAO: KDHT
IATA: DHT
Category: Medium
Scheduled Services: No

Elevation: 3991 ft
TransAlt. 18000 ft.

Airport Communications:
ASOS:134.075
ALBUQUERQUE CNTR:127.85
FORT WORTH RDO:122.2
CTAF/UNICOM:122.95

KDHT Zoom In..

If you have problems with the map follow the link
https://www.worldairports.se/pages/airport.php?
ICAO=KDHT

Runways:

(A) RW 03 length 5440 ft width 75 ft
---- / hdg 36

(B) RW 17 length 6400 ft width 75 ft
---- / hdg 171

(C) RW 21 length 5440 ft width 75 ft
---- / hdg 216

(D) RW 35 length 6400 ft width 75 ft
---- / hdg 351

Location; KDHT
Day. 12 / Time. 11.23 Zulu
* Altimeter: 30.07
* Temperature: -03° c. -26.6°f.
* Wind from: 290° Speed 07 kn.
Dewpoint: -05° c.
Visibility: 5 Statute Miles.
Clouds: Scattered 100 ft.
Conditions: Mist.

KDHT 121123Z AUTO 29007KT 5SM BR SCT001 M03/M05 A3007 RMK AO2 T10331050


Wind From 290°
Speed 07 kn.

 
 
jpsmedia worldairports.se 2019   terms of use